NORTHEAST SUFFOLK  -  Special Weather Statement Special Weather Statement        NORTHERN NASSAU  -  Special Weather Statement Special Weather Statement        NORTHWEST SUFFOLK  -  Special Weather Statement Special Weather Statement        SOUTHEAST SUFFOLK  -  Special Weather Statement Special Weather Statement        SOUTHERN NASSAU  -  Special Weather Statement Special Weather Statement        SOUTHWEST SUFFOLK  -  Special Weather Statement Special Weather Statement      

Active alerts

Northern Nassau
  Details for Northern Nassau Special Weather Statement
Southern Nassau
  Details for Southern Nassau Special Weather Statement
Northwest Suffolk
  Details for Northwest Suffolk Special Weather Statement
Southwest Suffolk
  Details for Southwest Suffolk Special Weather Statement
Northeast Suffolk
  Details for Northeast Suffolk Special Weather Statement
Southeast Suffolk
  Details for Southeast Suffolk Special Weather Statement


WXM80 ListenWXM80 Stop

You find our weather info also at:

UK Metoffice

WeatherCloud

Weather Underground

Northeastern Weather Network

AWEKAS

Citizen Weather Observer Program (CWOP)

HAMweather, WeatherForYou, PWS Weather


Weather Underground History page Text

Daily Summary for May 30, 2016 Units:  English    Metric   Both
« Previous Day
Next Day »
Daily Weekly Monthly Yearly Custom
  High: Low: Average:
Temperature: 78.2 °F 69.1 °F 71.8 °F
Dew Point: 74.3 °F 67.6 °F 69.5 °F
Humidity: 97 % 81 % 93 %
Wind Speed: 6.3 mph 0.0 mph 1.1 mph
Wind Gust: 11.5 mph - -
Wind:- - SSW
Pressure: 30.03 in 29.90 in -
Precipitation: 0.97 in    
Historical Graphs
 
 
Tabular Data for May 30, 2016
Time Temperature Dew Point Pressure Wind Wind Speed Wind Gust Humidity Rainfall Rate (Hourly)
00:03 69.8 °F 67.7 °F 30.03 in WSW 1.0 mph 6.9 mph 93 % 0.00 in
00:14 69.9 °F 67.8 °F 30.03 in SSW 2.1 mph 5.8 mph 93 % 0.00 in
00:19 69.9 °F 67.8 °F 30.03 in SSE 1.8 mph 3.5 mph 93 % 0.00 in
00:24 69.9 °F 68.1 °F 30.03 in SSE 0.6 mph 2.3 mph 94 % 0.00 in
00:34 69.9 °F 68.1 °F 30.03 in SSE 0.3 mph 2.3 mph 94 % 0.00 in
00:39 69.9 °F 68.1 °F 30.02 in South 1.9 mph 3.5 mph 94 % 0.00 in
00:44 69.9 °F 68.1 °F 30.02 in SW 1.0 mph 5.8 mph 94 % 0.00 in
00:54 69.8 °F 68.0 °F 30.02 in South 0.8 mph 2.3 mph 94 % 0.00 in
01:00 69.8 °F 68.0 °F 30.02 in South 1.0 mph 3.5 mph 94 % 0.00 in
01:05 69.8 °F 68.0 °F 30.02 in SSE 1.0 mph 3.5 mph 94 % 0.00 in
01:10 69.8 °F 68.3 °F 30.02 in SSW 1.4 mph 3.5 mph 95 % 0.00 in
01:15 69.8 °F 68.3 °F 30.01 in SSE 1.0 mph 3.5 mph 95 % 0.00 in
01:25 69.8 °F 68.3 °F 30.01 in Calm   1.2 mph 95 % 0.00 in
01:30 69.8 °F 68.3 °F 30.01 in South 2.0 mph 3.5 mph 95 % 0.00 in
01:35 69.8 °F 68.3 °F 30.01 in SE 0.9 mph 3.5 mph 95 % 0.00 in
01:40 69.7 °F 68.2 °F 30.01 in SW 1.1 mph 3.5 mph 95 % 0.00 in
01:45 69.8 °F 68.3 °F 30.00 in SSW 0.8 mph 2.0 mph 95 % 0.00 in
01:51 69.7 °F 68.2 °F 30.00 in SE 1.2 mph 3.5 mph 95 % 0.00 in
01:56 69.7 °F 68.2 °F 29.99 in Calm   1.2 mph 95 % 0.00 in
02:01 69.7 °F 68.2 °F 29.99 in SSE 0.3 mph 3.5 mph 95 % 0.00 in
02:06 69.7 °F 68.2 °F 29.99 in SSE 0.1 mph 2.0 mph 95 % 0.00 in
02:11 69.7 °F 68.2 °F 29.98 in SSE 0.2 mph 1.2 mph 95 % 0.00 in
02:16 69.7 °F 68.2 °F 29.98 in SE 1.0 mph 3.5 mph 95 % 0.00 in
02:21 69.7 °F 68.2 °F 29.98 in SE 0.6 mph 3.5 mph 95 % 0.00 in
02:26 69.8 °F 68.3 °F 29.98 in WSW 1.5 mph 3.5 mph 95 % 0.00 in
02:31 69.7 °F 68.2 °F 29.99 in SW 1.3 mph 3.5 mph 95 % 0.00 in
02:36 69.7 °F 68.2 °F 29.99 in SW 0.8 mph 3.5 mph 95 % 0.00 in
02:42 69.7 °F 68.2 °F 29.99 in SW 5.1 mph 9.2 mph 95 % 0.00 in
02:47 69.7 °F 68.2 °F 29.99 in WSW 2.3 mph 5.8 mph 95 % 0.00 in
02:52 69.6 °F 68.1 °F 29.99 in Calm     95 % 0.00 in
02:57 69.6 °F 68.1 °F 29.98 in SW 0.1 mph 1.2 mph 95 % 0.00 in
03:02 69.5 °F 68.0 °F 29.98 in SSE 2.2 mph 4.6 mph 95 % 0.00 in
03:07 69.5 °F 68.0 °F 29.98 in SW 0.2 mph 3.5 mph 95 % 0.01 in
03:12 69.4 °F 67.9 °F 29.98 in SW 1.4 mph 3.5 mph 95 % 0.02 in
03:17 69.4 °F 67.9 °F 29.98 in WSW 1.2 mph 3.5 mph 95 % 0.03 in
03:22 69.4 °F 67.9 °F 29.98 in SW 1.1 mph 2.3 mph 95 % 0.04 in
03:27 69.4 °F 67.9 °F 29.98 in WSW 1.9 mph 2.3 mph 95 % 0.09 in
03:33 69.4 °F 67.9 °F 29.97 in WSW 0.9 mph 3.5 mph 95 % 0.19 in
03:38 69.3 °F 67.8 °F 29.97 in Calm   1.2 mph 95 % 0.19 in
03:43 69.3 °F 67.8 °F 29.97 in Calm     95 % 0.19 in
03:48 69.2 °F 67.7 °F 29.97 in WSW 0.2 mph 1.2 mph 95 % 0.19 in
03:53 69.2 °F 67.7 °F 29.97 in Calm     95 % 0.19 in
03:58 69.2 °F 67.7 °F 29.97 in Calm     95 % 0.19 in
04:08 69.2 °F 67.7 °F 29.96 in Calm     95 % 0.18 in
04:13 69.2 °F 67.7 °F 29.96 in Calm     95 % 0.17 in
04:19 69.2 °F 67.7 °F 29.97 in Calm     95 % 0.15 in
04:24 69.2 °F 67.7 °F 29.96 in Calm     95 % 0.14 in
04:29 69.2 °F 67.7 °F 29.96 in Calm     95 % 0.09 in
04:34 69.2 °F 67.7 °F 29.96 in Calm     95 % 0.05 in
04:39 69.2 °F 67.7 °F 29.97 in Calm     95 % 0.06 in
04:44 69.1 °F 67.6 °F 29.97 in WSW 0.1 mph 1.0 mph 95 % 0.09 in
04:49 69.2 °F 67.7 °F 29.98 in WSW 0.4 mph 1.2 mph 95 % 0.17 in
04:54 69.1 °F 67.9 °F 29.96 in WSW 0.8 mph 2.0 mph 96 % 0.32 in
04:59 69.2 °F 68.0 °F 29.97 in WSW 0.1 mph 2.3 mph 96 % 0.44 in
05:04 69.2 °F 68.0 °F 29.97 in WSW 0.1 mph 1.2 mph 96 % 0.57 in
05:10 69.2 °F 68.0 °F 29.97 in WSW 0.2 mph 1.2 mph 96 % 0.61 in
05:20 69.2 °F 68.0 °F 29.97 in SW 0.2 mph 1.2 mph 96 % 0.65 in
05:25 69.1 °F 67.9 °F 29.97 in Calm   1.2 mph 96 % 0.65 in
05:30 69.1 °F 67.9 °F 29.97 in Calm     96 % 0.63 in
05:35 69.1 °F 67.9 °F 29.97 in Calm     96 % 0.62 in
05:40 69.2 °F 68.0 °F 29.96 in Calm     96 % 0.63 in
05:45 69.2 °F 68.0 °F 29.96 in Calm     96 % 0.59 in
05:50 69.2 °F 68.0 °F 29.96 in Calm     96 % 0.51 in
05:55 69.3 °F 68.1 °F 29.97 in Calm     96 % 0.35 in
06:01 69.3 °F 68.1 °F 29.97 in Calm     96 % 0.21 in
06:06 69.4 °F 68.2 °F 29.96 in Calm     96 % 0.11 in
06:11 69.4 °F 68.2 °F 29.97 in Calm     96 % 0.07 in
06:16 69.4 °F 68.2 °F 29.96 in Calm     96 % 0.06 in
06:21 69.5 °F 68.3 °F 29.96 in SW 0.6 mph 2.3 mph 96 % 0.03 in
06:26 69.5 °F 68.3 °F 29.96 in Calm     96 % 0.03 in
06:31 69.5 °F 68.3 °F 29.96 in SW 0.3 mph 1.2 mph 96 % 0.03 in
06:36 69.5 °F 68.6 °F 29.96 in WSW 0.9 mph 2.3 mph 97 % 0.02 in
06:41 69.5 °F 68.6 °F 29.96 in Calm   1.2 mph 97 % 0.00 in
06:46 69.6 °F 68.7 °F 29.97 in Calm     97 % 0.00 in
06:51 69.6 °F 68.7 °F 29.96 in Calm     97 % 0.00 in
06:56 69.6 °F 68.7 °F 29.96 in Calm     97 % 0.00 in
07:02 69.7 °F 68.8 °F 29.95 in Calm   1.2 mph 97 % 0.00 in
07:07 69.7 °F 68.8 °F 29.95 in Calm     97 % 0.01 in
07:12 69.7 °F 68.8 °F 29.95 in Calm     97 % 0.02 in
07:17 69.7 °F 68.8 °F 29.95 in Calm     97 % 0.02 in
07:22 69.8 °F 68.9 °F 29.95 in Calm     97 % 0.03 in
07:27 69.8 °F 68.9 °F 29.95 in ESE 0.2 mph 1.2 mph 97 % 0.05 in
07:32 69.8 °F 68.9 °F 29.95 in Calm     97 % 0.06 in
07:37 69.8 °F 68.9 °F 29.95 in Calm     97 % 0.07 in
07:42 69.9 °F 69.0 °F 29.95 in Calm   1.2 mph 97 % 0.08 in
07:47 69.9 °F 69.0 °F 29.95 in ESE 0.3 mph 1.2 mph 97 % 0.08 in
07:53 69.9 °F 69.0 °F 29.95 in Calm   2.3 mph 97 % 0.08 in
07:58 69.9 °F 69.0 °F 29.95 in WSW 1.5 mph 3.5 mph 97 % 0.08 in
08:03 69.9 °F 69.0 °F 29.96 in Calm   1.2 mph 97 % 0.07 in
08:08 69.9 °F 69.0 °F 29.96 in SW 1.4 mph 3.5 mph 97 % 0.07 in
08:13 69.9 °F 69.0 °F 29.96 in SW 0.1 mph 1.2 mph 97 % 0.06 in
08:18 69.9 °F 69.0 °F 29.96 in Calm     97 % 0.07 in
08:23 69.9 °F 69.0 °F 29.96 in WSW 1.1 mph 3.5 mph 97 % 0.05 in
08:28 69.9 °F 69.0 °F 29.96 in SW 2.0 mph 3.5 mph 97 % 0.04 in
08:33 70.0 °F 69.1 °F 29.96 in SW 0.8 mph 2.3 mph 97 % 0.03 in
08:38 70.1 °F 69.2 °F 29.96 in SW 0.5 mph 1.2 mph 97 % 0.01 in
08:49 70.2 °F 69.3 °F 29.96 in WSW 1.0 mph 2.3 mph 97 % 0.01 in
08:54 70.3 °F 69.4 °F 29.97 in WSW 2.6 mph 4.0 mph 97 % 0.01 in
08:59 70.4 °F 69.5 °F 29.97 in SW 2.6 mph 5.8 mph 97 % 0.01 in
09:04 70.5 °F 69.6 °F 29.97 in SW 1.2 mph 3.5 mph 97 % 0.01 in
09:09 70.6 °F 69.7 °F 29.97 in South 0.6 mph 2.3 mph 97 % 0.01 in
09:19 70.8 °F 69.9 °F 29.97 in Calm     97 % 0.00 in
09:24 71.0 °F 70.1 °F 29.97 in SW 2.1 mph 4.0 mph 97 % 0.00 in
09:29 71.2 °F 70.3 °F 29.97 in WSW 0.8 mph 3.5 mph 97 % 0.00 in
09:35 71.3 °F 70.4 °F 29.97 in WSW 1.5 mph 3.5 mph 97 % 0.00 in
09:40 71.4 °F 70.5 °F 29.97 in SW 3.5 mph 6.9 mph 97 % 0.00 in
09:45 71.4 °F 70.5 °F 29.97 in SW 1.9 mph 4.6 mph 97 % 0.00 in
09:50 71.4 °F 70.5 °F 29.96 in SW 0.5 mph 3.5 mph 97 % 0.00 in
09:55 71.3 °F 70.4 °F 29.96 in WSW 0.4 mph 1.2 mph 97 % 0.00 in
10:00 71.2 °F 70.3 °F 29.96 in WNW 1.3 mph 3.5 mph 97 % 0.00 in
10:05 71.2 °F 70.3 °F 29.96 in WNW 1.6 mph 3.5 mph 97 % 0.00 in
10:10 71.3 °F 70.4 °F 29.96 in SW 1.9 mph 3.5 mph 97 % 0.00 in
10:15 71.3 °F 70.4 °F 29.96 in SW 0.6 mph 3.5 mph 97 % 0.00 in
10:20 71.5 °F 70.6 °F 29.96 in WNW 0.1 mph 1.2 mph 97 % 0.00 in
10:26 71.6 °F 70.7 °F 29.96 in SW 1.9 mph 5.8 mph 97 % 0.00 in
10:31 71.6 °F 70.7 °F 29.96 in SW 0.5 mph 3.5 mph 97 % 0.00 in
10:36 71.6 °F 70.7 °F 29.96 in WNW 1.2 mph 3.5 mph 97 % 0.00 in
10:41 71.7 °F 70.8 °F 29.96 in NW 0.4 mph 2.3 mph 97 % 0.00 in
10:46 71.8 °F 70.9 °F 29.96 in NW 0.1 mph 1.2 mph 97 % 0.00 in
10:51 71.9 °F 71.0 °F 29.96 in NW 0.1 mph   97 % 0.00 in
10:56 71.9 °F 70.7 °F 29.96 in Calm   2.3 mph 96 % 0.00 in
11:01 71.8 °F 70.6 °F 29.96 in NW 1.3 mph 3.5 mph 96 % 0.00 in
11:06 71.7 °F 70.5 °F 29.96 in Calm   3.5 mph 96 % 0.00 in
11:12 71.7 °F 70.5 °F 29.96 in NW 0.5 mph 2.3 mph 96 % 0.00 in
11:17 71.7 °F 70.5 °F 29.96 in NW 0.4 mph 2.3 mph 96 % 0.00 in
11:22 71.8 °F 70.6 °F 29.96 in SW 2.3 mph 4.0 mph 96 % 0.00 in
11:27 71.9 °F 70.7 °F 29.96 in WSW 2.2 mph 6.9 mph 96 % 0.00 in
11:32 71.9 °F 70.4 °F 29.95 in WSW 0.2 mph 1.2 mph 95 % 0.00 in
11:37 72.0 °F 70.5 °F 29.95 in WSW 0.8 mph 2.3 mph 95 % 0.00 in
11:42 72.2 °F 70.7 °F 29.95 in WSW 3.1 mph 4.6 mph 95 % 0.00 in
11:47 72.4 °F 70.9 °F 29.95 in Calm   1.0 mph 95 % 0.00 in
11:52 72.8 °F 71.3 °F 29.95 in SW 1.0 mph 3.5 mph 95 % 0.00 in
11:57 73.1 °F 71.6 °F 29.95 in Calm   1.2 mph 95 % 0.00 in
12:03 73.5 °F 72.0 °F 29.94 in SW 1.6 mph 3.5 mph 95 % 0.00 in
12:08 74.3 °F 72.8 °F 29.94 in WSW 0.6 mph 3.5 mph 95 % 0.00 in
12:13 75.2 °F 73.7 °F 29.94 in WNW 0.3 mph 3.5 mph 95 % 0.00 in
12:18 75.6 °F 73.8 °F 29.94 in Calm   2.3 mph 94 % 0.00 in
12:23 76.5 °F 74.3 °F 29.94 in West 1.3 mph 3.5 mph 93 % 0.00 in
12:28 77.1 °F 74.3 °F 29.94 in Calm   1.0 mph 91 % 0.00 in
12:33 77.4 °F 73.6 °F 29.94 in SW 2.0 mph 3.5 mph 88 % 0.00 in
12:38 77.5 °F 73.0 °F 29.93 in SSW 1.0 mph 2.3 mph 86 % 0.00 in
12:43 77.8 °F 74.0 °F 29.93 in WSW 3.3 mph 5.0 mph 88 % 0.00 in
12:48 78.0 °F 73.1 °F 29.93 in West 3.4 mph 3.5 mph 85 % 0.00 in
12:54 78.1 °F 73.2 °F 29.93 in WNW 1.0 mph 2.0 mph 85 % 0.00 in
12:59 78.1 °F 73.2 °F 29.93 in WNW 1.9 mph 3.5 mph 85 % 0.00 in
13:04 78.0 °F 72.8 °F 29.93 in WNW 1.8 mph 3.5 mph 84 % 0.00 in
13:09 77.9 °F 72.7 °F 29.93 in NNW 3.2 mph 5.0 mph 84 % 0.00 in
13:14 77.7 °F 72.1 °F 29.93 in NNW 2.7 mph 5.0 mph 83 % 0.00 in
13:19 77.4 °F 71.8 °F 29.93 in NNW 1.3 mph 5.8 mph 83 % 0.00 in
13:24 77.1 °F 71.5 °F 29.93 in NW 2.2 mph 4.6 mph 83 % 0.00 in
13:29 76.9 °F 71.3 °F 29.93 in Calm   2.3 mph 83 % 0.00 in
13:34 76.7 °F 71.1 °F 29.93 in WNW 0.8 mph 4.6 mph 83 % 0.00 in
13:39 76.7 °F 71.1 °F 29.93 in WNW 1.1 mph 3.5 mph 83 % 0.00 in
13:45 76.9 °F 72.4 °F 29.93 in WNW 0.3 mph 1.2 mph 86 % 0.00 in
13:50 77.3 °F 73.1 °F 29.92 in WNW 0.3 mph 2.3 mph 87 % 0.00 in
14:00 77.5 °F 71.9 °F 29.92 in WSW 0.3 mph 3.5 mph 83 % 0.00 in
14:05 77.8 °F 72.6 °F 29.92 in WSW 0.4 mph 1.2 mph 84 % 0.00 in
14:10 78.1 °F 72.5 °F 29.92 in WSW 1.0 mph 5.0 mph 83 % 0.00 in
14:15 78.2 °F 72.3 °F 29.92 in WNW 1.1 mph 3.5 mph 82 % 0.00 in
14:20 78.2 °F 72.3 °F 29.92 in Calm   1.0 mph 82 % 0.00 in
14:25 78.2 °F 72.3 °F 29.92 in Calm   1.2 mph 82 % 0.00 in
14:30 78.0 °F 71.7 °F 29.92 in NNE 0.7 mph 3.5 mph 81 % 0.00 in
14:41 77.6 °F 71.7 °F 29.92 in Calm     82 % 0.00 in
14:46 77.4 °F 71.8 °F 29.92 in NNE 1.0 mph 2.3 mph 83 % 0.00 in
14:51 77.3 °F 72.1 °F 29.92 in NNE 0.2 mph 2.0 mph 84 % 0.00 in
14:56 77.2 °F 72.0 °F 29.92 in Calm     84 % 0.00 in
15:01 77.1 °F 72.2 °F 29.92 in Calm     85 % 0.00 in
15:06 76.9 °F 72.0 °F 29.92 in Calm     85 % 0.00 in
15:11 76.9 °F 72.0 °F 29.92 in NNE 0.5 mph 1.2 mph 85 % 0.00 in
15:16 76.7 °F 72.2 °F 29.91 in SSE 2.0 mph 3.5 mph 86 % 0.00 in
15:21 76.6 °F 72.1 °F 29.91 in Calm   2.3 mph 86 % 0.00 in
15:27 76.5 °F 72.0 °F 29.91 in SE 0.2 mph 2.3 mph 86 % 0.00 in
15:32 76.3 °F 72.1 °F 29.91 in SE 0.4 mph 2.3 mph 87 % 0.00 in
15:37 76.2 °F 71.7 °F 29.91 in Calm     86 % 0.00 in
15:42 76.1 °F 71.9 °F 29.91 in SSW 1.4 mph 3.5 mph 87 % 0.00 in
15:47 76.0 °F 71.5 °F 29.91 in SSW 0.3 mph 3.5 mph 86 % 0.00 in
15:52 76.0 °F 71.8 °F 29.91 in SSW 0.4 mph 2.0 mph 87 % 0.00 in
15:57 75.9 °F 71.4 °F 29.91 in SSE 2.2 mph 4.0 mph 86 % 0.00 in
16:02 75.7 °F 71.2 °F 29.90 in South 0.6 mph 3.0 mph 86 % 0.00 in
16:07 75.6 °F 71.1 °F 29.90 in SSW 0.2 mph 2.3 mph 86 % 0.00 in
16:12 75.5 °F 71.4 °F 29.91 in SSW 0.7 mph 2.3 mph 87 % 0.00 in
16:18 75.5 °F 71.4 °F 29.91 in Calm   1.2 mph 87 % 0.00 in
16:23 75.4 °F 71.3 °F 29.91 in SE 3.1 mph 4.6 mph 87 % 0.00 in
16:28 75.2 °F 71.1 °F 29.91 in SSE 2.2 mph 5.8 mph 87 % 0.00 in
16:33 75.0 °F 70.9 °F 29.90 in SSE 2.3 mph 7.0 mph 87 % 0.00 in
16:38 74.9 °F 71.1 °F 29.91 in South 1.0 mph 3.5 mph 88 % 0.00 in
16:43 74.8 °F 71.0 °F 29.90 in SSW 1.2 mph 3.5 mph 88 % 0.00 in
16:48 74.8 °F 71.0 °F 29.90 in SSE 0.2 mph 1.2 mph 88 % 0.00 in
16:53 74.9 °F 71.4 °F 29.90 in South 1.1 mph 2.3 mph 89 % 0.00 in
16:58 75.0 °F 71.2 °F 29.90 in South 1.5 mph 3.5 mph 88 % 0.00 in
17:03 74.9 °F 71.1 °F 29.90 in SSW 1.3 mph 3.5 mph 88 % 0.00 in
17:14 74.7 °F 70.9 °F 29.91 in SSE 0.8 mph 2.3 mph 88 % 0.00 in
17:19 74.7 °F 70.9 °F 29.91 in SSE 1.2 mph 5.0 mph 88 % 0.00 in
17:24 74.7 °F 70.9 °F 29.91 in SW 3.2 mph 8.0 mph 88 % 0.00 in
17:34 74.6 °F 70.8 °F 29.91 in SW 1.0 mph 3.5 mph 88 % 0.00 in
17:39 74.5 °F 70.7 °F 29.91 in SE 0.2 mph 1.2 mph 88 % 0.00 in
17:44 74.4 °F 70.6 °F 29.90 in SSE 1.4 mph 3.5 mph 88 % 0.00 in
17:49 74.4 °F 70.6 °F 29.91 in SSE 0.4 mph 3.5 mph 88 % 0.00 in
17:54 74.4 °F 70.6 °F 29.91 in SSE 1.2 mph 3.5 mph 88 % 0.00 in
18:00 74.2 °F 70.4 °F 29.90 in SE 0.8 mph 3.5 mph 88 % 0.00 in
18:05 74.1 °F 70.3 °F 29.90 in SE 1.6 mph 3.0 mph 88 % 0.00 in
18:10 73.9 °F 70.1 °F 29.90 in SW 1.1 mph 3.5 mph 88 % 0.00 in
18:15 73.8 °F 70.4 °F 29.90 in SSE 2.8 mph 8.1 mph 89 % 0.00 in
18:20 73.6 °F 70.2 °F 29.90 in WSW 1.7 mph 4.6 mph 89 % 0.00 in
18:25 73.5 °F 70.1 °F 29.90 in SSW 2.4 mph 6.9 mph 89 % 0.00 in
18:30 73.4 °F 70.3 °F 29.90 in SE 1.4 mph 3.5 mph 90 % 0.00 in
18:35 73.2 °F 69.8 °F 29.90 in SSE 2.1 mph 4.0 mph 89 % 0.00 in
18:40 73.0 °F 69.6 °F 29.90 in SSW 2.4 mph 5.0 mph 89 % 0.00 in
18:56 72.4 °F 69.3 °F 29.90 in SSW 1.1 mph 3.5 mph 90 % 0.00 in
19:06 71.8 °F 68.7 °F 29.90 in SSW 0.3 mph 3.5 mph 90 % 0.00 in
19:11 71.6 °F 68.5 °F 29.90 in SSW 3.0 mph 6.9 mph 90 % 0.00 in
19:16 71.4 °F 68.6 °F 29.90 in South 2.3 mph 3.5 mph 91 % 0.00 in
19:21 71.2 °F 68.4 °F 29.91 in SE 1.3 mph 9.0 mph 91 % 0.00 in
19:26 70.9 °F 68.1 °F 29.91 in SSW 0.8 mph 3.5 mph 91 % 0.00 in
19:31 70.7 °F 67.9 °F 29.90 in SSW 1.5 mph 3.5 mph 91 % 0.00 in
19:36 70.6 °F 68.2 °F 29.91 in South 2.1 mph 3.5 mph 92 % 0.00 in
19:42 70.5 °F 68.1 °F 29.91 in SW 2.8 mph 5.0 mph 92 % 0.00 in
19:47 70.5 °F 68.1 °F 29.91 in SSW 2.4 mph 4.6 mph 92 % 0.00 in
19:52 70.4 °F 68.0 °F 29.90 in SSW 3.7 mph 6.9 mph 92 % 0.00 in
19:57 70.3 °F 67.9 °F 29.91 in SSW 2.6 mph 5.8 mph 92 % 0.00 in
20:02 70.3 °F 67.9 °F 29.91 in SW 3.1 mph 5.8 mph 92 % 0.00 in
20:07 70.2 °F 68.1 °F 29.91 in SSW 2.2 mph 3.5 mph 93 % 0.00 in
20:12 70.2 °F 68.1 °F 29.91 in SSW 2.1 mph 3.5 mph 93 % 0.00 in
20:17 70.1 °F 68.0 °F 29.91 in SSW 2.0 mph 6.9 mph 93 % 0.00 in
20:22 70.1 °F 68.0 °F 29.91 in SSW 0.9 mph 3.5 mph 93 % 0.00 in
20:27 70.1 °F 68.0 °F 29.91 in South 3.2 mph 4.0 mph 93 % 0.00 in
20:33 70.1 °F 68.0 °F 29.91 in South 1.8 mph 3.5 mph 93 % 0.00 in
20:38 70.1 °F 68.0 °F 29.92 in SSW 3.3 mph 4.6 mph 93 % 0.00 in
20:48 70.0 °F 67.9 °F 29.92 in SW 3.1 mph 5.8 mph 93 % 0.00 in
20:53 70.0 °F 67.9 °F 29.92 in SW 0.3 mph 1.2 mph 93 % 0.00 in
20:58 70.0 °F 67.9 °F 29.92 in SSW 1.5 mph 4.6 mph 93 % 0.00 in
21:03 70.0 °F 67.9 °F 29.92 in SSW 0.7 mph 4.0 mph 93 % 0.00 in
21:13 69.9 °F 67.8 °F 29.92 in South 2.8 mph 5.0 mph 93 % 0.00 in
21:18 69.9 °F 67.8 °F 29.92 in SSW 1.3 mph 3.5 mph 93 % 0.00 in
21:29 69.8 °F 67.7 °F 29.92 in SSW 1.2 mph 3.5 mph 93 % 0.00 in
21:39 69.7 °F 67.6 °F 29.93 in WSW 2.3 mph 4.6 mph 93 % 0.00 in
21:44 69.7 °F 67.9 °F 29.93 in SW 1.5 mph 3.5 mph 94 % 0.00 in
21:49 69.7 °F 67.9 °F 29.93 in SW 2.7 mph 4.6 mph 94 % 0.00 in
21:54 69.6 °F 67.8 °F 29.93 in SSW 1.0 mph 3.5 mph 94 % 0.00 in
21:59 69.5 °F 67.7 °F 29.92 in SE 0.7 mph 3.5 mph 94 % 0.00 in
22:09 69.5 °F 67.7 °F 29.92 in South 1.6 mph 4.6 mph 94 % 0.00 in
22:15 69.5 °F 67.7 °F 29.92 in SW 0.7 mph 3.5 mph 94 % 0.00 in
22:20 69.5 °F 67.7 °F 29.93 in SSW 2.7 mph 5.0 mph 94 % 0.00 in
22:25 69.4 °F 67.6 °F 29.93 in SSW 1.2 mph 3.5 mph 94 % 0.00 in
22:30 69.5 °F 67.7 °F 29.93 in WSW 1.0 mph 4.6 mph 94 % 0.00 in
22:35 69.5 °F 67.7 °F 29.92 in SW 1.8 mph 3.5 mph 94 % 0.00 in
22:40 69.5 °F 67.7 °F 29.92 in WSW 2.2 mph 3.5 mph 94 % 0.00 in
22:45 69.5 °F 67.7 °F 29.92 in South 0.2 mph 1.2 mph 94 % 0.00 in
22:50 69.5 °F 67.7 °F 29.92 in SW 0.3 mph 2.3 mph 94 % 0.00 in
22:55 69.6 °F 67.8 °F 29.92 in West 0.6 mph 2.3 mph 94 % 0.00 in
23:00 69.6 °F 67.8 °F 29.92 in WSW 0.7 mph 3.5 mph 94 % 0.00 in
23:06 69.6 °F 67.8 °F 29.93 in WSW 6.3 mph 11.5 mph 94 % 0.00 in
23:11 69.7 °F 67.9 °F 29.92 in SW 3.3 mph 8.1 mph 94 % 0.00 in
23:16 69.7 °F 67.6 °F 29.93 in SW 2.8 mph 6.9 mph 93 % 0.00 in
23:21 69.7 °F 67.6 °F 29.92 in SSW 1.5 mph 4.0 mph 93 % 0.00 in
23:26 69.8 °F 67.7 °F 29.92 in WSW 2.9 mph 6.9 mph 93 % 0.00 in
23:31 69.8 °F 67.7 °F 29.93 in SW 2.8 mph 5.8 mph 93 % 0.00 in
23:36 69.8 °F 67.7 °F 29.93 in SW 1.5 mph 4.6 mph 93 % 0.00 in
23:41 69.8 °F 67.7 °F 29.92 in SW 0.2 mph 2.3 mph 93 % 0.00 in
23:52 69.8 °F 67.7 °F 29.92 in SW 0.1 mph 1.2 mph 93 % 0.00 in
23:57 69.8 °F 67.7 °F 29.92 in SW 2.0 mph 5.8 mph 93 % 0.00 in
Crab Meadow Weather
Compliments of Weather Underground - 3 mb

Script developed by  Jim McMurry - jmcmurry@mwt.net Adapted for the template by  Wim van der Kuil - Leuven-Template.eu

Lightning: Lightning's return stroke is hotter than the surface of the sun. Lightning is 50,000 degrees F. The sun is about 11,000 degrees F.